createdAt,value
2022-09-13T00:00:13.000Z,0
2022-09-13T00:01:29.000Z,0
2022-09-13T00:02:45.925Z,0
2022-09-13T00:04:02.074Z,0
2022-09-13T00:05:17.000Z,0
2022-09-13T00:06:34.358Z,0
2022-09-13T00:07:50.510Z,0
2022-09-13T00:09:06.000Z,0
2022-09-13T00:10:22.000Z,0
2022-09-13T00:11:37.000Z,0
2022-09-13T00:12:53.000Z,0
2022-09-13T00:14:10.243Z,0
2022-09-13T00:15:26.000Z,0
2022-09-13T00:16:42.000Z,0
2022-09-13T00:17:58.685Z,0
2022-09-13T00:19:14.000Z,0
2022-09-13T00:20:30.000Z,0
2022-09-13T00:21:46.000Z,0
2022-09-13T00:23:03.258Z,0
2022-09-13T00:24:19.000Z,0
2022-09-13T00:25:35.000Z,0
2022-09-13T00:26:51.000Z,0
2022-09-13T00:28:06.000Z,0
2022-09-13T00:29:22.000Z,0
2022-09-13T00:30:38.000Z,0
2022-09-13T00:31:55.297Z,0
2022-09-13T00:33:11.000Z,0
2022-09-13T00:34:27.581Z,0
2022-09-13T00:35:43.000Z,0
2022-09-13T00:36:59.000Z,0
2022-09-13T00:38:15.000Z,0
2022-09-13T00:39:31.000Z,0
2022-09-13T00:40:48.000Z,0
2022-09-13T00:42:04.000Z,0
2022-09-13T00:43:20.000Z,0
2022-09-13T00:44:35.758Z,0
2022-09-13T00:45:51.000Z,0
2022-09-13T00:47:07.000Z,0
2022-09-13T00:48:24.199Z,0
2022-09-13T00:49:40.000Z,0
2022-09-13T00:50:56.000Z,0
2022-09-13T00:52:11.655Z,0
2022-09-13T00:53:27.000Z,0
2022-09-13T00:54:43.000Z,0
2022-09-13T00:55:59.000Z,0
2022-09-13T00:57:16.000Z,0
2022-09-13T00:58:32.000Z,0
2022-09-13T00:59:48.000Z,0
2022-09-13T01:01:04.000Z,0
2022-09-13T01:02:20.815Z,0
2022-09-13T01:03:36.000Z,0
2022-09-13T01:04:52.000Z,0
2022-09-13T01:06:09.000Z,0
2022-09-13T01:07:25.000Z,0
2022-09-13T01:08:40.000Z,0
2022-09-13T01:09:56.706Z,0
2022-09-13T01:11:12.000Z,0
2022-09-13T01:12:28.779Z,0
2022-09-13T01:13:44.000Z,0
2022-09-13T01:15:01.000Z,0
2022-09-13T01:16:17.000Z,0
2022-09-13T01:17:33.000Z,0
2022-09-13T01:18:49.716Z,0
2022-09-13T01:20:05.000Z,0
2022-09-13T01:21:22.010Z,0
2022-09-13T01:22:37.000Z,0
2022-09-13T01:23:54.298Z,0
2022-09-13T01:25:09.000Z,0
2022-09-13T01:26:25.000Z,0
2022-09-13T01:27:41.000Z,0
2022-09-13T01:28:57.894Z,0
2022-09-13T01:30:13.000Z,0
2022-09-13T01:31:29.000Z,0
2022-09-13T01:32:46.332Z,0
2022-09-13T01:34:02.000Z,0
2022-09-13T01:35:18.000Z,0
2022-09-13T01:36:34.000Z,0
2022-09-13T01:37:50.000Z,0
2022-09-13T01:39:06.000Z,0
2022-09-13T01:40:22.000Z,0
2022-09-13T01:41:38.000Z,0
2022-09-13T01:42:54.000Z,0
2022-09-13T01:44:10.000Z,0
2022-09-13T01:45:26.000Z,0
2022-09-13T01:46:42.000Z,0
2022-09-13T01:47:59.084Z,0
2022-09-13T01:49:15.000Z,0
2022-09-13T01:50:31.000Z,0
2022-09-13T01:51:47.000Z,0
2022-09-13T01:53:03.000Z,0
2022-09-13T01:54:19.000Z,0
2022-09-13T01:55:35.000Z,0
2022-09-13T01:56:51.000Z,0
2022-09-13T01:58:07.000Z,0
2022-09-13T01:59:23.000Z,0
2022-09-13T02:00:39.000Z,0
2022-09-13T02:01:55.000Z,0
2022-09-13T02:03:11.848Z,0
2022-09-13T02:04:27.000Z,0
2022-09-13T02:05:43.000Z,0
2022-09-13T02:07:00.000Z,0
2022-09-13T02:08:16.000Z,0
2022-09-13T02:09:32.000Z,0
2022-09-13T02:10:48.710Z,0
2022-09-13T02:12:04.000Z,0
2022-09-13T02:13:20.000Z,0
2022-09-13T02:14:35.000Z,0
2022-09-13T02:15:52.000Z,0
2022-09-13T02:17:08.000Z,0
2022-09-13T02:18:24.598Z,0
2022-09-13T02:19:40.000Z,0
2022-09-13T02:20:56.887Z,0
2022-09-13T02:22:12.000Z,0
2022-09-13T02:23:28.000Z,0
2022-09-13T02:24:45.000Z,0
2022-09-13T02:26:01.000Z,0
2022-09-13T02:27:17.618Z,0
2022-09-13T02:28:33.000Z,0
2022-09-13T02:29:49.000Z,0
2022-09-13T02:31:05.077Z,0
2022-09-13T02:32:21.208Z,0
2022-09-13T02:33:37.000Z,0
2022-09-13T02:34:53.000Z,0
2022-09-13T02:36:09.000Z,0
2022-09-13T02:37:25.000Z,0
2022-09-13T02:38:41.000Z,0
2022-09-13T02:39:57.000Z,0
2022-09-13T02:41:14.000Z,0
2022-09-13T02:42:30.000Z,0
2022-09-13T02:43:46.520Z,0
2022-09-13T02:45:02.665Z,0
2022-09-13T02:46:18.811Z,0
2022-09-13T02:47:33.974Z,0
2022-09-13T02:48:49.000Z,0
2022-09-13T02:50:06.260Z,0
2022-09-13T02:51:22.000Z,0
2022-09-13T02:52:38.000Z,0
2022-09-13T02:53:54.000Z,0
2022-09-13T02:55:10.000Z,0
2022-09-13T02:56:26.988Z,0
2022-09-13T02:57:42.000Z,0
2022-09-13T02:58:59.272Z,0
2022-09-13T03:00:15.000Z,0
2022-09-13T03:01:31.000Z,0
2022-09-13T03:02:47.716Z,0
2022-09-13T03:04:02.877Z,0
2022-09-13T03:05:18.000Z,0
2022-09-13T03:06:35.189Z,0
2022-09-13T03:07:51.000Z,0
2022-09-13T03:09:07.000Z,0
2022-09-13T03:10:23.000Z,0
2022-09-13T03:11:39.000Z,0
2022-09-13T03:12:55.000Z,0
2022-09-13T03:14:12.039Z,0
2022-09-13T03:15:27.000Z,0
2022-09-13T03:16:44.000Z,0
2022-09-13T03:18:00.000Z,0
2022-09-13T03:19:16.000Z,0
2022-09-13T03:20:31.783Z,0
2022-09-13T03:21:47.000Z,0
2022-09-13T03:23:03.000Z,0
2022-09-13T03:24:19.000Z,0
2022-09-13T03:25:36.360Z,0
2022-09-13T03:26:52.000Z,0
2022-09-13T03:28:08.000Z,0
2022-09-13T03:29:24.000Z,0
2022-09-13T03:30:40.944Z,0
2022-09-13T03:31:56.000Z,0
2022-09-13T03:33:13.000Z,0
2022-09-13T03:34:29.388Z,0
2022-09-13T03:35:45.000Z,0
2022-09-13T03:37:00.000Z,0
2022-09-13T03:38:16.000Z,0
2022-09-13T03:39:32.000Z,0
2022-09-13T03:40:48.000Z,0
2022-09-13T03:42:05.000Z,0
2022-09-13T03:43:21.000Z,0
2022-09-13T03:44:37.562Z,0
2022-09-13T03:45:53.000Z,0
2022-09-13T03:47:09.000Z,0
2022-09-13T03:48:25.000Z,0
2022-09-13T03:49:42.139Z,0
2022-09-13T03:50:58.000Z,0
2022-09-13T03:52:14.000Z,0
2022-09-13T03:53:29.000Z,0
2022-09-13T03:54:45.000Z,0
2022-09-13T03:56:01.000Z,0
2022-09-13T03:57:17.000Z,0
2022-09-13T03:58:34.175Z,0
2022-09-13T03:59:50.000Z,0
2022-09-13T04:01:06.462Z,0
2022-09-13T04:02:22.608Z,0
2022-09-13T04:03:38.000Z,0
2022-09-13T04:04:54.000Z,0
2022-09-13T04:06:10.000Z,0
2022-09-13T04:07:27.205Z,0
2022-09-13T04:08:43.000Z,0
2022-09-13T04:09:58.000Z,0
2022-09-13T04:11:14.000Z,0
2022-09-13T04:12:30.000Z,0
2022-09-13T04:13:46.000Z,0
2022-09-13T04:15:03.080Z,0
2022-09-13T04:16:19.000Z,0
2022-09-13T04:17:35.000Z,0
2022-09-13T04:18:51.000Z,0
2022-09-13T04:20:07.000Z,0
2022-09-13T04:21:23.000Z,0
2022-09-13T04:22:39.000Z,0
2022-09-13T04:23:55.000Z,0
2022-09-13T04:25:12.244Z,0
2022-09-13T04:26:27.000Z,0
2022-09-13T04:27:43.000Z,0
2022-09-13T04:28:59.000Z,0
2022-09-13T04:30:15.000Z,0
2022-09-13T04:31:31.000Z,0
2022-09-13T04:32:47.000Z,0
2022-09-13T04:34:04.000Z,0
2022-09-13T04:35:20.000Z,0
2022-09-13T04:36:36.000Z,0
2022-09-13T04:37:52.000Z,0
2022-09-13T04:39:08.000Z,0
2022-09-13T04:40:24.000Z,0
2022-09-13T04:41:40.000Z,0
2022-09-13T04:42:56.000Z,0
2022-09-13T04:44:12.000Z,0
2022-09-13T04:45:28.000Z,0
2022-09-13T04:46:44.743Z,0
2022-09-13T04:48:00.000Z,0
2022-09-13T04:49:16.000Z,0
2022-09-13T04:50:32.000Z,0
2022-09-13T04:51:49.000Z,0
2022-09-13T04:53:05.474Z,0
2022-09-13T04:54:21.000Z,0
2022-09-13T04:55:37.000Z,0
2022-09-13T04:56:53.000Z,0
2022-09-13T04:58:09.000Z,0
2022-09-13T04:59:24.000Z,0
2022-09-13T05:00:41.362Z,0
2022-09-13T05:01:57.000Z,5
2022-09-13T05:03:13.000Z,5
2022-09-13T05:04:29.000Z,5
2022-09-13T05:05:45.000Z,5
2022-09-13T05:07:00.000Z,5
2022-09-13T05:08:17.000Z,5
2022-09-13T05:09:33.425Z,5
2022-09-13T05:10:49.000Z,5
2022-09-13T05:12:05.000Z,5
2022-09-13T05:13:21.000Z,5
2022-09-13T05:14:37.000Z,5
2022-09-13T05:15:53.000Z,5
2022-09-13T05:17:10.000Z,5
2022-09-13T05:18:26.000Z,5
2022-09-13T05:19:42.000Z,5
2022-09-13T05:20:58.000Z,5
2022-09-13T05:22:14.877Z,5
2022-09-13T05:23:29.000Z,11
2022-09-13T05:24:46.182Z,11
2022-09-13T05:26:02.340Z,16
2022-09-13T05:27:18.000Z,16
2022-09-13T05:28:34.000Z,16
2022-09-13T05:29:50.000Z,16
2022-09-13T05:31:06.000Z,16
2022-09-13T05:32:22.000Z,16
2022-09-13T05:33:38.000Z,16
2022-09-13T05:34:55.000Z,16
2022-09-13T05:36:11.000Z,16
2022-09-13T05:37:27.000Z,16
2022-09-13T05:38:43.000Z,16
2022-09-13T05:39:58.000Z,11
2022-09-13T05:41:15.103Z,11
2022-09-13T05:42:31.247Z,11
2022-09-13T05:43:47.000Z,11
2022-09-13T05:45:03.000Z,11
2022-09-13T05:46:19.000Z,16
2022-09-13T05:47:35.825Z,16
2022-09-13T05:48:51.000Z,16
2022-09-13T05:50:07.000Z,16
2022-09-13T05:51:24.000Z,22
2022-09-13T05:52:40.000Z,22
2022-09-13T05:53:56.000Z,22
2022-09-13T05:55:12.000Z,22
2022-09-13T05:56:27.000Z,22
2022-09-13T05:57:43.000Z,22
2022-09-13T05:58:59.000Z,28
2022-09-13T06:00:16.000Z,28
2022-09-13T06:01:32.000Z,28
2022-09-13T06:02:48.000Z,28
2022-09-13T06:04:04.000Z,22
2022-09-13T06:05:20.895Z,28
2022-09-13T06:06:36.000Z,28
2022-09-13T06:07:52.000Z,33
2022-09-13T06:09:09.000Z,33
2022-09-13T06:10:25.000Z,33
2022-09-13T06:11:41.000Z,28
2022-09-13T06:12:56.000Z,28
2022-09-13T06:14:12.000Z,28
2022-09-13T06:15:28.000Z,28
2022-09-13T06:16:45.000Z,33
2022-09-13T06:18:01.000Z,33
2022-09-13T06:19:17.531Z,39
2022-09-13T06:20:33.000Z,39
2022-09-13T06:21:49.000Z,39
2022-09-13T06:23:05.000Z,33
2022-09-13T06:24:21.000Z,33
2022-09-13T06:25:38.000Z,33
2022-09-13T06:26:54.000Z,45
2022-09-13T06:28:10.551Z,50
2022-09-13T06:29:25.000Z,56
2022-09-13T06:30:41.000Z,50
2022-09-13T06:31:57.000Z,45
2022-09-13T06:33:13.000Z,45
2022-09-13T06:34:30.000Z,50
2022-09-13T06:35:46.000Z,50
2022-09-13T06:37:02.597Z,39
2022-09-13T06:38:18.000Z,33
2022-09-13T06:39:34.000Z,39
2022-09-13T06:40:50.000Z,45
2022-09-13T06:42:06.000Z,45
2022-09-13T06:43:23.000Z,45
2022-09-13T06:44:39.479Z,50
2022-09-13T06:45:54.000Z,45
2022-09-13T06:47:10.000Z,45
2022-09-13T06:48:26.000Z,39
2022-09-13T06:49:42.000Z,39
2022-09-13T06:50:58.000Z,39
2022-09-13T06:52:15.000Z,45
2022-09-13T06:53:31.000Z,45
2022-09-13T06:54:47.000Z,45
2022-09-13T06:56:03.000Z,45
2022-09-13T06:57:19.963Z,45
2022-09-13T06:58:35.000Z,50
2022-09-13T06:59:52.000Z,56
2022-09-13T07:01:08.000Z,61
2022-09-13T07:02:23.000Z,61
2022-09-13T07:03:39.000Z,61
2022-09-13T07:04:55.000Z,61
2022-09-13T07:06:11.000Z,56
2022-09-13T07:07:27.000Z,56
2022-09-13T07:08:44.000Z,61
2022-09-13T07:10:00.000Z,67
2022-09-13T07:11:16.000Z,90
2022-09-13T07:12:32.000Z,95
2022-09-13T07:13:48.000Z,101
2022-09-13T07:15:04.000Z,106
2022-09-13T07:16:20.000Z,95
2022-09-13T07:17:37.322Z,61
2022-09-13T07:18:52.000Z,50
2022-09-13T07:20:08.000Z,50
2022-09-13T07:21:24.000Z,45
2022-09-13T07:22:40.000Z,45
2022-09-13T07:23:56.000Z,61
2022-09-13T07:25:13.223Z,50
2022-09-13T07:26:29.000Z,45
2022-09-13T07:27:45.000Z,50
2022-09-13T07:29:01.000Z,90
2022-09-13T07:30:17.000Z,90
2022-09-13T07:31:33.000Z,90
2022-09-13T07:32:49.000Z,106
2022-09-13T07:34:06.000Z,84
2022-09-13T07:35:21.000Z,101
2022-09-13T07:36:37.559Z,90
2022-09-13T07:37:53.000Z,73
2022-09-13T07:39:09.000Z,78
2022-09-13T07:40:25.000Z,106
2022-09-13T07:41:42.128Z,118
2022-09-13T07:42:58.000Z,135
2022-09-13T07:44:14.000Z,101
2022-09-13T07:45:30.000Z,135
2022-09-13T07:46:46.000Z,78
2022-09-13T07:48:02.000Z,78
2022-09-13T07:49:18.000Z,101
2022-09-13T07:50:34.000Z,67
2022-09-13T07:51:50.317Z,61
2022-09-13T07:53:06.000Z,118
2022-09-13T07:54:22.000Z,106
2022-09-13T07:55:38.758Z,112
2022-09-13T07:56:54.000Z,90
2022-09-13T07:58:10.000Z,90
2022-09-13T07:59:26.000Z,123
2022-09-13T08:00:43.000Z,78
2022-09-13T08:01:59.000Z,95
2022-09-13T08:03:15.643Z,78
2022-09-13T08:04:31.000Z,129
2022-09-13T08:05:47.000Z,67
2022-09-13T08:07:03.000Z,73
2022-09-13T08:08:19.000Z,67
2022-09-13T08:09:35.000Z,61
2022-09-13T08:10:51.000Z,101
2022-09-13T08:12:07.000Z,129
2022-09-13T08:13:23.834Z,129
2022-09-13T08:14:39.972Z,112
2022-09-13T08:15:55.000Z,67
2022-09-13T08:17:12.000Z,56
2022-09-13T08:18:28.000Z,45
2022-09-13T08:19:44.000Z,112
2022-09-13T08:21:00.715Z,95
2022-09-13T08:22:16.000Z,106
2022-09-13T08:23:33.008Z,106
2022-09-13T08:24:47.000Z,106
2022-09-13T08:26:04.000Z,106
2022-09-13T08:27:20.468Z,106
2022-09-13T08:28:36.000Z,112
2022-09-13T08:29:52.000Z,112
2022-09-13T08:31:08.000Z,112
2022-09-13T08:32:24.000Z,118
2022-09-13T08:33:41.190Z,118
2022-09-13T08:34:57.000Z,118
2022-09-13T08:36:13.000Z,123
2022-09-13T08:37:29.633Z,95
2022-09-13T08:38:45.000Z,118
2022-09-13T08:40:01.000Z,146
2022-09-13T08:41:16.000Z,135
2022-09-13T08:42:33.000Z,129
2022-09-13T08:43:49.000Z,129
2022-09-13T08:45:05.000Z,129
2022-09-13T08:46:21.677Z,146
2022-09-13T08:47:37.000Z,168
2022-09-13T08:48:53.000Z,196
2022-09-13T08:50:09.000Z,196
2022-09-13T08:51:26.000Z,163
2022-09-13T08:52:42.000Z,84
2022-09-13T08:53:58.000Z,151
2022-09-13T08:55:14.000Z,163
2022-09-13T08:56:30.000Z,84
2022-09-13T08:57:45.000Z,84
2022-09-13T08:59:02.160Z,95
2022-09-13T09:00:18.000Z,61
2022-09-13T09:01:34.000Z,67
2022-09-13T09:02:50.000Z,78
2022-09-13T09:04:06.000Z,67
2022-09-13T09:05:22.000Z,56
2022-09-13T09:06:39.035Z,67
2022-09-13T09:07:54.000Z,101
2022-09-13T09:09:11.322Z,61
2022-09-13T09:10:27.000Z,78
2022-09-13T09:11:43.000Z,61
2022-09-13T09:12:59.000Z,73
2022-09-13T09:14:14.000Z,61
2022-09-13T09:15:30.000Z,140
2022-09-13T09:16:46.000Z,140
2022-09-13T09:18:03.000Z,140
2022-09-13T09:19:19.000Z,112
2022-09-13T09:20:35.000Z,146
2022-09-13T09:21:50.829Z,151
2022-09-13T09:23:06.971Z,191
2022-09-13T09:24:22.000Z,230
2022-09-13T09:25:39.000Z,208
2022-09-13T09:26:55.417Z,163
2022-09-13T09:28:11.000Z,168
2022-09-13T09:29:27.000Z,118
2022-09-13T09:30:43.000Z,174
2022-09-13T09:31:59.000Z,90
2022-09-13T09:33:15.000Z,67
2022-09-13T09:34:32.296Z,129
2022-09-13T09:35:48.000Z,168
2022-09-13T09:37:04.000Z,84
2022-09-13T09:38:19.000Z,118
2022-09-13T09:39:35.000Z,180
2022-09-13T09:40:51.000Z,67
2022-09-13T09:42:07.000Z,50
2022-09-13T09:43:24.000Z,56
2022-09-13T09:44:40.000Z,56
2022-09-13T09:45:56.000Z,61
2022-09-13T09:47:12.000Z,50
2022-09-13T09:48:28.000Z,39
2022-09-13T09:49:44.000Z,39
2022-09-13T09:51:00.000Z,45
2022-09-13T09:52:17.000Z,61
2022-09-13T09:53:33.000Z,129
2022-09-13T09:54:48.000Z,106
2022-09-13T09:56:04.000Z,78
2022-09-13T09:57:20.000Z,129
2022-09-13T09:58:36.000Z,163
2022-09-13T09:59:53.000Z,140
2022-09-13T10:01:09.000Z,168
2022-09-13T10:02:25.000Z,174
2022-09-13T10:03:41.000Z,168
2022-09-13T10:04:57.000Z,163
2022-09-13T10:06:13.000Z,180
2022-09-13T10:07:29.000Z,168
2022-09-13T10:08:46.000Z,180
2022-09-13T10:10:02.000Z,174
2022-09-13T10:11:17.000Z,191
2022-09-13T10:12:33.000Z,213
2022-09-13T10:13:49.000Z,219
2022-09-13T10:15:05.000Z,241
2022-09-13T10:16:21.000Z,241
2022-09-13T10:17:38.000Z,286
2022-09-13T10:18:54.000Z,219
2022-09-13T10:20:10.000Z,129
2022-09-13T10:21:26.000Z,106
2022-09-13T10:22:42.000Z,118
2022-09-13T10:23:58.000Z,208
2022-09-13T10:25:14.000Z,140
2022-09-13T10:26:31.000Z,123
2022-09-13T10:27:46.000Z,123
2022-09-13T10:29:02.000Z,112
2022-09-13T10:30:18.000Z,101
2022-09-13T10:31:34.000Z,90
2022-09-13T10:32:50.000Z,106
2022-09-13T10:34:07.000Z,90
2022-09-13T10:35:23.403Z,95
2022-09-13T10:36:39.000Z,140
2022-09-13T10:37:55.000Z,157
2022-09-13T10:39:11.000Z,146
2022-09-13T10:40:27.000Z,140
2022-09-13T10:41:43.000Z,151
2022-09-13T10:43:00.000Z,146
2022-09-13T10:44:15.000Z,163
2022-09-13T10:45:31.000Z,151
2022-09-13T10:46:47.000Z,146
2022-09-13T10:48:03.000Z,140
2022-09-13T10:49:20.035Z,123
2022-09-13T10:50:35.000Z,106
2022-09-13T10:51:52.000Z,84
2022-09-13T10:53:08.000Z,95
2022-09-13T10:54:24.000Z,101
2022-09-13T10:55:40.000Z,90
2022-09-13T10:56:56.000Z,90
2022-09-13T10:58:12.000Z,118
2022-09-13T10:59:28.000Z,118
2022-09-13T11:00:44.000Z,106
2022-09-13T11:02:00.000Z,78
2022-09-13T11:03:16.000Z,106
2022-09-13T11:04:32.000Z,118
2022-09-13T11:05:48.000Z,112
2022-09-13T11:07:04.000Z,95
2022-09-13T11:08:21.000Z,101
2022-09-13T11:09:37.000Z,129
2022-09-13T11:10:53.536Z,146
2022-09-13T11:12:09.000Z,146
2022-09-13T11:13:25.830Z,140
2022-09-13T11:14:41.000Z,151
2022-09-13T11:15:57.000Z,168
2022-09-13T11:17:13.000Z,168
2022-09-13T11:18:29.000Z,129
2022-09-13T11:19:45.000Z,101
2022-09-13T11:21:01.000Z,95
2022-09-13T11:22:17.000Z,95
2022-09-13T11:23:33.000Z,106
2022-09-13T11:24:49.000Z,101
2022-09-13T11:26:06.000Z,95
2022-09-13T11:27:22.000Z,118
2022-09-13T11:28:38.000Z,106
2022-09-13T11:29:54.000Z,106
2022-09-13T11:31:10.000Z,185
2022-09-13T11:32:26.000Z,208
2022-09-13T11:33:41.000Z,123
2022-09-13T11:34:58.000Z,208
2022-09-13T11:36:14.000Z,196
2022-09-13T11:37:30.000Z,191
2022-09-13T11:38:46.000Z,191
2022-09-13T11:40:02.000Z,191
2022-09-13T11:41:19.091Z,191
2022-09-13T11:42:35.000Z,202
2022-09-13T11:43:51.000Z,225
2022-09-13T11:45:07.000Z,253
2022-09-13T11:46:23.000Z,157
2022-09-13T11:47:39.000Z,112
2022-09-13T11:48:55.000Z,106
2022-09-13T11:50:10.000Z,129
2022-09-13T11:51:27.282Z,90
2022-09-13T11:52:43.000Z,67
2022-09-13T11:53:59.000Z,106
2022-09-13T11:55:15.721Z,129
2022-09-13T11:56:31.000Z,67
2022-09-13T11:57:48.011Z,202
2022-09-13T11:59:03.000Z,196
2022-09-13T12:00:20.000Z,196
2022-09-13T12:01:36.453Z,236
2022-09-13T12:02:52.000Z,281
2022-09-13T12:04:08.000Z,292
2022-09-13T12:05:24.000Z,298
2022-09-13T12:06:39.000Z,303
2022-09-13T12:07:55.000Z,275
2022-09-13T12:09:12.000Z,270
2022-09-13T12:10:28.000Z,112
2022-09-13T12:11:44.000Z,67
2022-09-13T12:13:00.000Z,61
2022-09-13T12:14:16.000Z,73
2022-09-13T12:15:32.000Z,101
2022-09-13T12:16:49.000Z,236
2022-09-13T12:18:05.000Z,225
2022-09-13T12:19:21.526Z,230
2022-09-13T12:20:37.000Z,95
2022-09-13T12:21:53.000Z,78
2022-09-13T12:23:08.000Z,73
2022-09-13T12:24:24.000Z,67
2022-09-13T12:25:41.000Z,73
2022-09-13T12:26:57.000Z,106
2022-09-13T12:28:13.000Z,118
2022-09-13T12:29:29.000Z,112
2022-09-13T12:30:45.000Z,101
2022-09-13T12:32:02.012Z,78
2022-09-13T12:33:17.000Z,73
2022-09-13T12:34:34.000Z,73
2022-09-13T12:35:50.000Z,101
2022-09-13T12:37:06.000Z,118
2022-09-13T12:38:22.000Z,135
2022-09-13T12:39:37.905Z,135
2022-09-13T12:40:53.000Z,118
2022-09-13T12:42:09.000Z,106
2022-09-13T12:43:26.000Z,106
2022-09-13T12:44:42.000Z,101
2022-09-13T12:45:58.000Z,118
2022-09-13T12:47:14.000Z,118
2022-09-13T12:48:30.000Z,123
2022-09-13T12:49:46.000Z,118
2022-09-13T12:51:03.000Z,123
2022-09-13T12:52:19.000Z,129
2022-09-13T12:53:35.000Z,129
2022-09-13T12:54:51.000Z,118
2022-09-13T12:56:06.000Z,112
2022-09-13T12:57:22.000Z,112
2022-09-13T12:58:38.000Z,118
2022-09-13T12:59:55.000Z,129
2022-09-13T13:01:11.000Z,151
2022-09-13T13:02:27.000Z,146
2022-09-13T13:03:43.000Z,118
2022-09-13T13:04:59.000Z,106
2022-09-13T13:06:15.000Z,90
2022-09-13T13:07:31.000Z,73
2022-09-13T13:08:48.000Z,90
2022-09-13T13:10:04.000Z,95
2022-09-13T13:11:20.000Z,90
2022-09-13T13:12:35.000Z,106
2022-09-13T13:13:51.000Z,123
2022-09-13T13:15:08.037Z,129
2022-09-13T13:16:23.000Z,135
2022-09-13T13:17:40.338Z,135
2022-09-13T13:18:56.000Z,140
2022-09-13T13:20:12.000Z,140
2022-09-13T13:21:28.000Z,135
2022-09-13T13:22:44.000Z,129
2022-09-13T13:24:00.000Z,129
2022-09-13T13:25:16.000Z,135
2022-09-13T13:26:33.353Z,140
2022-09-13T13:27:49.000Z,140
2022-09-13T13:29:04.000Z,146
2022-09-13T13:30:20.000Z,123
2022-09-13T13:31:36.000Z,118
2022-09-13T13:32:52.000Z,123
2022-09-13T13:34:09.000Z,112
2022-09-13T13:35:25.000Z,101
2022-09-13T13:36:40.559Z,95
2022-09-13T13:37:56.000Z,112
2022-09-13T13:39:12.000Z,106
2022-09-13T13:40:28.000Z,112
2022-09-13T13:41:44.000Z,174
2022-09-13T13:43:01.000Z,135
2022-09-13T13:44:17.000Z,101
2022-09-13T13:45:33.000Z,185
2022-09-13T13:46:49.000Z,135
2022-09-13T13:48:05.000Z,129
2022-09-13T13:49:21.000Z,123
2022-09-13T13:50:37.000Z,123
2022-09-13T13:51:54.000Z,123
2022-09-13T13:53:09.000Z,129
2022-09-13T13:54:25.000Z,106
2022-09-13T13:55:41.000Z,101
2022-09-13T13:56:57.000Z,123
2022-09-13T13:58:13.000Z,95
2022-09-13T13:59:30.000Z,73
2022-09-13T14:00:46.360Z,101
2022-09-13T14:02:02.000Z,56
2022-09-13T14:03:18.659Z,106
2022-09-13T14:04:34.000Z,95
2022-09-13T14:05:50.000Z,101
2022-09-13T14:07:06.000Z,90
2022-09-13T14:08:23.000Z,146
2022-09-13T14:09:38.000Z,123
2022-09-13T14:10:54.000Z,90
2022-09-13T14:12:10.000Z,78
2022-09-13T14:13:26.000Z,84
2022-09-13T14:14:42.000Z,78
2022-09-13T14:15:59.137Z,95
2022-09-13T14:17:15.000Z,84
2022-09-13T14:18:31.000Z,84
2022-09-13T14:19:47.000Z,106
2022-09-13T14:21:03.000Z,101
2022-09-13T14:22:19.000Z,90
2022-09-13T14:23:36.010Z,78
2022-09-13T14:24:51.000Z,95
2022-09-13T14:26:07.000Z,118
2022-09-13T14:27:23.000Z,67
2022-09-13T14:28:39.000Z,61
2022-09-13T14:29:55.000Z,56
2022-09-13T14:31:11.000Z,67
2022-09-13T14:32:27.000Z,73
2022-09-13T14:33:43.000Z,78
2022-09-13T14:35:00.000Z,73
2022-09-13T14:36:16.000Z,78
2022-09-13T14:37:32.000Z,84
2022-09-13T14:38:48.762Z,73
2022-09-13T14:40:04.000Z,67
2022-09-13T14:41:20.000Z,84
2022-09-13T14:42:35.000Z,78
2022-09-13T14:43:52.000Z,73
2022-09-13T14:45:08.000Z,61
2022-09-13T14:46:24.000Z,61
2022-09-13T14:47:40.000Z,61
2022-09-13T14:48:56.000Z,78
2022-09-13T14:50:13.086Z,61
2022-09-13T14:51:29.233Z,73
2022-09-13T14:52:45.000Z,95
2022-09-13T14:54:01.538Z,73
2022-09-13T14:55:17.000Z,67
2022-09-13T14:56:33.000Z,101
2022-09-13T14:57:49.000Z,95
2022-09-13T14:59:04.000Z,84
2022-09-13T15:00:21.000Z,90
2022-09-13T15:01:37.000Z,56
2022-09-13T15:02:53.000Z,95
2022-09-13T15:04:09.000Z,73
2022-09-13T15:05:25.000Z,101
2022-09-13T15:06:41.000Z,61
2022-09-13T15:07:57.000Z,45
2022-09-13T15:09:14.000Z,61
2022-09-13T15:10:30.000Z,39
2022-09-13T15:11:46.000Z,50
2022-09-13T15:13:02.000Z,56
2022-09-13T15:14:18.000Z,61
2022-09-13T15:15:33.000Z,56
2022-09-13T15:16:50.172Z,61
2022-09-13T15:18:06.320Z,67
2022-09-13T15:19:22.000Z,39
2022-09-13T15:20:38.608Z,45
2022-09-13T15:21:54.000Z,45
2022-09-13T15:23:10.000Z,50
2022-09-13T15:24:26.000Z,33
2022-09-13T15:25:42.000Z,33
2022-09-13T15:26:59.343Z,45
2022-09-13T15:28:15.000Z,45
2022-09-13T15:29:31.000Z,50
2022-09-13T15:30:47.000Z,56
2022-09-13T15:32:02.000Z,50
2022-09-13T15:33:18.000Z,61
2022-09-13T15:34:34.000Z,73
2022-09-13T15:35:51.367Z,67
2022-09-13T15:37:07.000Z,45
2022-09-13T15:38:23.000Z,33
2022-09-13T15:39:39.000Z,28
2022-09-13T15:40:55.000Z,16
2022-09-13T15:42:11.000Z,28
2022-09-13T15:43:28.000Z,56
2022-09-13T15:44:44.385Z,56
2022-09-13T15:46:00.000Z,45
2022-09-13T15:47:16.000Z,33
2022-09-13T15:48:31.000Z,33
2022-09-13T15:49:47.990Z,45
2022-09-13T15:51:03.000Z,56
2022-09-13T15:52:20.000Z,50
2022-09-13T15:53:36.000Z,50
2022-09-13T15:54:52.000Z,50
2022-09-13T15:56:08.000Z,45
2022-09-13T15:57:24.000Z,45
2022-09-13T15:58:40.000Z,45
2022-09-13T15:59:56.000Z,45
2022-09-13T16:01:13.000Z,45
2022-09-13T16:02:29.000Z,39
2022-09-13T16:03:45.000Z,39
2022-09-13T16:05:00.000Z,28
2022-09-13T16:06:16.000Z,16
2022-09-13T16:07:32.000Z,11
2022-09-13T16:08:48.000Z,11
2022-09-13T16:10:05.000Z,11
2022-09-13T16:11:21.000Z,11
2022-09-13T16:12:37.000Z,11
2022-09-13T16:13:53.773Z,16
2022-09-13T16:15:09.000Z,22
2022-09-13T16:16:25.000Z,33
2022-09-13T16:17:41.000Z,45
2022-09-13T16:18:58.000Z,50
2022-09-13T16:20:14.000Z,45
2022-09-13T16:21:29.000Z,39
2022-09-13T16:22:45.000Z,28
2022-09-13T16:24:01.942Z,22
2022-09-13T16:25:17.000Z,16
2022-09-13T16:26:34.000Z,16
2022-09-13T16:27:50.000Z,22
2022-09-13T16:29:06.000Z,22
2022-09-13T16:30:22.000Z,33
2022-09-13T16:31:38.000Z,33
2022-09-13T16:32:54.000Z,33
2022-09-13T16:34:10.000Z,33
2022-09-13T16:35:27.000Z,28
2022-09-13T16:36:43.000Z,22
2022-09-13T16:37:58.000Z,22
2022-09-13T16:39:14.000Z,16
2022-09-13T16:40:30.000Z,16
2022-09-13T16:41:46.000Z,22
2022-09-13T16:43:02.000Z,22
2022-09-13T16:44:19.279Z,22
2022-09-13T16:45:35.000Z,22
2022-09-13T16:46:51.000Z,22
2022-09-13T16:48:07.000Z,22
2022-09-13T16:49:23.000Z,22
2022-09-13T16:50:39.000Z,22
2022-09-13T16:51:55.000Z,22
2022-09-13T16:53:12.000Z,16
2022-09-13T16:54:27.462Z,22
2022-09-13T16:55:43.000Z,16
2022-09-13T16:56:59.000Z,11
2022-09-13T16:58:15.000Z,11
2022-09-13T16:59:31.000Z,11
2022-09-13T17:00:47.000Z,11
2022-09-13T17:02:04.000Z,11
2022-09-13T17:03:20.000Z,11
2022-09-13T17:04:36.000Z,11
2022-09-13T17:05:52.000Z,11
2022-09-13T17:07:08.000Z,11
2022-09-13T17:08:24.000Z,11
2022-09-13T17:09:40.000Z,11
2022-09-13T17:10:56.000Z,11
2022-09-13T17:12:12.000Z,5
2022-09-13T17:13:28.000Z,5
2022-09-13T17:14:44.000Z,5
2022-09-13T17:16:00.941Z,5
2022-09-13T17:17:16.000Z,0
2022-09-13T17:18:33.230Z,0
2022-09-13T17:19:49.374Z,0
2022-09-13T17:21:05.000Z,0
2022-09-13T17:22:21.000Z,0
2022-09-13T17:23:37.000Z,0
2022-09-13T17:24:53.000Z,0
2022-09-13T17:26:09.000Z,0
2022-09-13T17:27:25.000Z,0
2022-09-13T17:28:41.000Z,0
2022-09-13T17:29:57.000Z,0
2022-09-13T17:31:13.000Z,0
2022-09-13T17:32:29.000Z,0
2022-09-13T17:33:45.000Z,0
2022-09-13T17:35:01.000Z,0
2022-09-13T17:36:18.000Z,0
2022-09-13T17:37:34.000Z,0
2022-09-13T17:38:50.000Z,0
2022-09-13T17:40:06.000Z,0
2022-09-13T17:41:22.855Z,0
2022-09-13T17:42:38.000Z,0
2022-09-13T17:43:54.161Z,0
2022-09-13T17:45:10.000Z,0
2022-09-13T17:46:26.000Z,0
2022-09-13T17:47:42.000Z,0
2022-09-13T17:48:58.000Z,0
2022-09-13T17:50:14.000Z,0
2022-09-13T17:51:30.052Z,0
2022-09-13T17:52:45.000Z,0
2022-09-13T17:54:02.000Z,0
2022-09-13T17:55:18.000Z,0
2022-09-13T17:56:34.000Z,0
2022-09-13T17:57:50.000Z,0
2022-09-13T17:59:06.000Z,0
2022-09-13T18:00:23.068Z,0
2022-09-13T18:01:38.000Z,0
2022-09-13T18:02:55.000Z,0
2022-09-13T18:04:11.000Z,0
2022-09-13T18:05:27.000Z,0
2022-09-13T18:06:43.000Z,0